Time;durP1;ratioP1;P1;durP2;ratioP2;P2;SDS_P1;SDS_P2;PMS_P1;PMS_P2;Temp;Humidity;BMP_temperature;BMP_pressure;BME280_temperature;BME280_humidity;BME280_pressure;Samples;Min_cycle;Max_cycle;Signal;HPM_P1;HPM_P2
2022/10/30 00:01:50;;;;;;;76.30;68.30;;;;;;;12.97;100.00;101644.09;5053034;28;20505;-48
2022/10/30 00:04:17;;;;;;;80.57;72.00;;;;;;;12.97;100.00;101656.63;5052992;28;20427;-49
2022/10/30 00:06:45;;;;;;;80.70;72.50;;;;;;;12.97;100.00;101656.63;5051635;28;20882;-53
2022/10/30 00:09:12;;;;;;;79.90;71.80;;;;;;;12.95;100.00;101646.13;5052804;28;20916;-49
2022/10/30 00:11:42;;;;;;;80.70;71.97;;;;;;;12.91;100.00;101642.16;5052958;28;20840;-48
2022/10/30 00:14:10;;;;;;;83.17;74.53;;;;;;;12.91;100.00;101649.38;5052873;28;20435;-52
2022/10/30 00:16:37;;;;;;;79.47;71.40;;;;;;;12.90;100.00;101651.25;5052199;28;21053;-49
2022/10/30 00:19:05;;;;;;;85.87;77.77;;;;;;;12.89;100.00;101648.75;5052690;28;20431;-51
2022/10/30 00:21:32;;;;;;;88.10;79.10;;;;;;;12.88;100.00;101649.75;5054143;28;20461;-53
2022/10/30 00:24:00;;;;;;;84.47;75.80;;;;;;;12.86;100.00;101652.63;5055546;28;20775;-52
2022/10/30 00:26:28;;;;;;;85.67;77.20;;;;;;;12.87;100.00;101659.66;5052422;28;20968;-53
2022/10/30 00:28:57;;;;;;;82.67;74.97;;;;;;;12.86;100.00;101649.13;5052169;28;20496;-49
2022/10/30 00:31:25;;;;;;;86.57;73.97;;;;;;;12.85;100.00;101650.97;5052303;28;20851;-49
2022/10/30 00:33:53;;;;;;;84.60;75.00;;;;;;;12.84;100.00;101641.28;5052322;28;20446;-52
2022/10/30 00:36:22;;;;;;;87.10;78.47;;;;;;;12.85;100.00;101636.75;5052510;28;20481;-49
2022/10/30 00:38:50;;;;;;;87.13;77.93;;;;;;;12.85;100.00;101640.25;5051863;28;20459;-53
2022/10/30 00:41:20;;;;;;;86.70;77.93;;;;;;;12.86;100.00;101649.13;5052128;28;20439;-51
2022/10/30 00:43:48;;;;;;;85.60;77.83;;;;;;;12.87;100.00;101646.25;5052374;28;20892;-48
2022/10/30 00:46:25;;;;;;;84.87;76.37;;;;;;;12.89;100.00;101638.03;5052103;28;20520;-50
2022/10/30 00:48:56;;;;;;;83.67;75.30;;;;;;;12.88;100.00;101631.84;5051653;28;20681;-52
2022/10/30 00:51:25;;;;;;;84.00;75.70;;;;;;;12.86;100.00;101631.22;5052302;28;20481;-49
2022/10/30 00:53:53;;;;;;;88.27;79.77;;;;;;;12.86;100.00;101630.38;5052215;28;20445;-49
2022/10/30 00:56:22;;;;;;;85.50;77.47;;;;;;;12.85;100.00;101636.75;5051972;28;20471;-50
2022/10/30 00:58:53;;;;;;;87.03;78.43;;;;;;;12.84;100.00;101630.59;5051586;28;20529;-50
2022/10/30 01:01:26;;;;;;;82.27;75.67;;;;;;;12.85;100.00;101628.72;5052045;28;20485;-46
2022/10/30 01:03:56;;;;;;;85.77;78.00;;;;;;;12.84;100.00;101627.91;5052209;28;20534;-49
2022/10/30 01:06:24;;;;;;;85.70;77.60;;;;;;;12.83;100.00;101630.75;5052191;28;20501;-51
2022/10/30 01:08:54;;;;;;;83.43;75.57;;;;;;;12.81;100.00;101627.44;5051421;28;20463;-51
2022/10/30 01:11:26;;;;;;;83.57;75.60;;;;;;;12.77;100.00;101630.50;5051585;28;20459;-48
2022/10/30 01:13:56;;;;;;;85.90;77.53;;;;;;;12.75;100.00;101635.19;5052054;28;20985;-49
2022/10/30 01:16:53;;;;;;;81.37;74.23;;;;;;;12.72;100.00;101640.13;5051673;28;20532;-52
2022/10/30 01:19:30;;;;;;;83.10;75.70;;;;;;;12.67;100.00;101646.03;5051696;28;20436;-51
2022/10/30 01:22:11;;;;;;;90.13;81.00;;;;;;;12.66;100.00;101643.56;5056622;28;20443;-49
2022/10/30 01:24:49;;;;;;;94.77;86.00;;;;;;;12.64;100.00;101633.03;5051975;28;20431;-52
2022/10/30 01:27:32;;;;;;;90.87;81.60;;;;;;;12.63;100.00;101630.53;5051348;28;20596;-50
2022/10/30 01:30:12;;;;;;;93.20;83.97;;;;;;;12.62;100.00;101624.38;5051806;28;20778;-52
2022/10/30 01:32:59;;;;;;;97.97;88.53;;;;;;;12.61;100.00;101625.38;5052121;28;20492;-48
2022/10/30 01:35:35;;;;;;;94.13;84.27;;;;;;;12.61;100.00;101619.19;5051835;28;20431;-48
2022/10/30 01:38:09;;;;;;;92.70;83.33;;;;;;;12.60;100.00;101623.69;5051085;28;20450;-50
2022/10/30 01:40:37;;;;;;;98.20;85.13;;;;;;;12.59;100.00;101630.09;5051545;28;20488;-52
2022/10/30 01:43:05;;;;;;;95.97;86.23;;;;;;;12.56;100.00;101627.78;5051687;28;20492;-52
2022/10/30 01:45:50;;;;;;;93.27;84.23;;;;;;;12.57;100.00;101625.94;5051771;28;20435;-50
2022/10/30 01:48:47;;;;;;;96.77;85.63;;;;;;;12.55;100.00;101623.44;5051086;28;20467;-49
2022/10/30 01:51:24;;;;;;;98.27;86.40;;;;;;;12.55;100.00;101625.28;5033924;28;20482;-48
2022/10/30 01:54:02;;;;;;;99.53;85.67;;;;;;;12.54;100.00;101618.28;5051722;28;20508;-49
2022/10/30 01:56:39;;;;;;;109.80;91.13;;;;;;;12.55;100.00;101618.09;5051325;28;20474;-46
2022/10/30 01:59:13;;;;;;;110.13;88.87;;;;;;;12.55;100.00;101610.06;5051351;28;20443;-54
2022/10/30 02:01:41;;;;;;;113.83;89.40;;;;;;;12.55;100.00;101610.06;5051374;28;20431;-51
2022/10/30 02:04:13;;;;;;;107.40;89.77;;;;;;;12.57;100.00;101613.38;5051673;28;20488;-48
2022/10/30 02:06:41;;;;;;;102.07;87.33;;;;;;;12.57;100.00;101601.88;5050105;28;20448;-48
2022/10/30 02:09:08;;;;;;;140.10;96.97;;;;;;;12.56;100.00;101597.53;5051476;28;20438;-46
2022/10/30 02:11:38;;;;;;;100.80;90.50;;;;;;;12.55;100.00;101601.22;5051064;28;20435;-48
2022/10/30 02:14:07;;;;;;;112.53;93.67;;;;;;;12.54;100.00;101600.41;5051119;28;20432;-48
2022/10/30 02:16:39;;;;;;;121.17;92.17;;;;;;;12.54;100.00;101605.75;5051335;28;20923;-51
2022/10/30 02:19:06;;;;;;;149.87;103.40;;;;;;;12.54;100.00;101602.25;5051015;28;20442;-50
2022/10/30 02:21:35;;;;;;;132.93;101.97;;;;;;;12.51;100.00;101599.94;5052723;28;20530;-47
2022/10/30 02:24:03;;;;;;;104.73;92.67;;;;;;;12.50;100.00;101596.44;5053572;28;20486;-49
2022/10/30 02:26:30;;;;;;;123.17;98.40;;;;;;;12.50;100.00;101600.94;5050907;28;20451;-47
2022/10/30 02:28:58;;;;;;;109.17;97.37;;;;;;;12.49;100.00;101600.13;5049925;28;20512;-48
2022/10/30 02:31:25;;;;;;;124.83;101.50;;;;;;;12.49;100.00;101601.97;5054186;28;20496;-50
2022/10/30 02:33:53;;;;;;;106.80;95.13;;;;;;;12.49;100.00;101601.97;5054824;28;20504;-49
2022/10/30 02:36:20;;;;;;;110.00;97.07;;;;;;;12.48;100.00;101593.13;5054487;28;20474;-48
2022/10/30 02:38:49;;;;;;;107.20;96.00;;;;;;;12.49;100.00;101596.59;5053464;28;21070;-50
2022/10/30 02:41:17;;;;;;;106.47;95.70;;;;;;;12.48;100.00;101586.94;5054506;28;20435;-46
2022/10/30 02:43:44;;;;;;;114.33;97.10;;;;;;;12.47;100.00;101578.09;5054736;28;20472;-48
2022/10/30 02:46:12;;;;;;;113.43;97.30;;;;;;;12.47;100.00;101577.25;5054492;28;20463;-46
2022/10/30 02:48:40;;;;;;;116.53;104.53;;;;;;;12.45;100.00;101580.13;5053093;28;20537;-49
2022/10/30 02:51:07;;;;;;;172.10;111.80;;;;;;;12.42;100.00;101585.84;5054128;28;20439;-52
2022/10/30 02:53:35;;;;;;;165.13;106.53;;;;;;;12.42;100.00;101588.53;5054824;28;20431;-49
2022/10/30 02:56:05;;;;;;;142.87;106.80;;;;;;;12.41;100.00;101586.84;5054547;28;20439;-49
2022/10/30 02:58:33;;;;;;;118.73;105.40;;;;;;;12.40;100.00;101582.50;5052874;28;20459;-49
2022/10/30 03:01:05;;;;;;;159.47;110.50;;;;;;;12.39;100.00;101582.72;5054109;28;20477;-48
2022/10/30 03:03:33;;;;;;;127.13;103.67;;;;;;;12.39;100.00;101586.22;5054319;28;20439;-49
2022/10/30 03:06:01;;;;;;;150.73;109.90;;;;;;;12.38;100.00;101576.53;5053930;28;20439;-47
2022/10/30 03:08:29;;;;;;;166.03;113.77;;;;;;;12.38;100.00;101576.53;5053718;28;21012;-48
2022/10/30 03:11:01;;;;;;;146.70;112.53;;;;;;;12.38;100.00;101581.88;5053778;28;20435;-46
2022/10/30 03:13:32;;;;;;;124.47;105.87;;;;;;;12.38;100.00;101570.34;5054056;28;20492;-46
2022/10/30 03:16:01;;;;;;;174.03;109.80;;;;;;;12.36;100.00;101573.22;5053865;28;20485;-50
2022/10/30 03:18:29;;;;;;;112.40;98.43;;;;;;;12.34;100.00;101577.91;5053460;28;20459;-51
2022/10/30 03:20:58;;;;;;;136.80;105.90;;;;;;;12.32;100.00;101577.28;5050098;28;20917;-51
2022/10/30 03:23:26;;;;;;;115.40;102.87;;;;;;;12.30;100.00;101573.97;5061572;28;20520;-47
2022/10/30 03:25:54;;;;;;;109.57;98.20;;;;;;;12.29;100.00;101576.81;5053742;28;20451;-51
2022/10/30 03:28:23;;;;;;;129.23;106.37;;;;;;;12.27;100.00;101589.56;5053950;28;20984;-48
2022/10/30 03:30:57;;;;;;;131.17;107.30;;;;;;;12.24;100.00;101582.75;5054201;28;20481;-52
2022/10/30 03:33:25;;;;;;;108.47;97.43;;;;;;;12.21;100.00;101586.59;5053830;28;20438;-49
2022/10/30 03:35:53;;;;;;;129.83;107.43;;;;;;;12.18;100.00;101586.16;5053553;28;21002;-51
2022/10/30 03:38:20;;;;;;;116.97;103.07;;;;;;;12.16;100.00;101572.97;5053320;28;20836;-52
2022/10/30 03:40:48;;;;;;;131.90;113.67;;;;;;;12.12;100.00;101577.06;5052898;28;21038;-50
2022/10/30 03:43:16;;;;;;;114.57;103.60;;;;;;;12.09;100.00;101568.56;5052757;28;20436;-47
2022/10/30 03:45:46;;;;;;;115.57;105.33;;;;;;;12.02;100.00;101581.00;5053330;28;21064;-51
2022/10/30 03:48:16;;;;;;;111.47;101.70;;;;;;;11.96;100.00;101568.38;5053100;28;20513;-53
2022/10/30 03:50:44;;;;;;;110.03;101.47;;;;;;;11.90;100.00;101569.13;5053385;28;20435;-53
2022/10/30 03:53:13;;;;;;;124.63;109.47;;;;;;;11.86;100.00;101562.47;5053406;28;20439;-52
2022/10/30 03:55:41;;;;;;;159.77;118.37;;;;;;;11.79;100.00;101559.75;5053391;28;20439;-48
2022/10/30 03:58:08;;;;;;;144.47;112.60;;;;;;;11.78;100.00;101560.75;5052430;28;20529;-51
2022/10/30 04:00:36;;;;;;;122.77;110.37;;;;;;;11.76;100.00;101559.28;5053313;28;20431;-53
2022/10/30 04:03:06;;;;;;;157.47;122.17;;;;;;;11.74;100.00;101559.44;5053022;28;20488;-51
2022/10/30 04:05:37;;;;;;;122.83;110.43;;;;;;;11.72;100.00;101555.31;5053278;28;20424;-54
2022/10/30 04:08:07;;;;;;;123.93;110.50;;;;;;;11.70;100.00;101562.69;5052590;28;20459;-49
2022/10/30 04:10:35;;;;;;;112.23;102.07;;;;;;;11.71;100.00;101573.16;5052820;28;21058;-53
2022/10/30 04:13:05;;;;;;;121.00;108.50;;;;;;;11.74;100.00;101572.00;5052891;28;20954;-52
2022/10/30 04:15:33;;;;;;;111.87;102.27;;;;;;;11.71;100.00;101567.81;5052986;28;20430;-49
2022/10/30 04:18:01;;;;;;;147.57;113.83;;;;;;;11.68;100.00;101558.31;5052167;28;20530;-53
2022/10/30 04:20:30;;;;;;;115.27;104.90;;;;;;;11.65;100.00;101566.69;5049131;28;20431;-51
2022/10/30 04:23:02;;;;;;;195.70;114.13;;;;;;;11.64;100.00;101569.56;5060581;28;20431;-50
2022/10/30 04:25:30;;;;;;;378.63;126.10;;;;;;;11.60;100.00;101562.91;5052789;28;20435;-50
2022/10/30 04:27:58;;;;;;;187.63;111.83;;;;;;;11.56;100.00;101546.41;5052181;28;20455;-50
2022/10/30 04:30:26;;;;;;;116.47;104.63;;;;;;;11.54;100.00;101563.66;5052519;28;20438;-49
2022/10/30 04:32:55;;;;;;;198.63;110.80;;;;;;;11.50;100.00;101565.00;5052228;28;20493;-48
2022/10/30 04:35:25;;;;;;;246.53;118.93;;;;;;;11.46;100.00;101569.09;5052479;28;20432;-52
2022/10/30 04:37:53;;;;;;;125.10;111.60;;;;;;;11.37;100.00;101564.81;5052027;28;20529;-53
2022/10/30 04:40:24;;;;;;;129.07;114.80;;;;;;;11.30;100.00;101558.53;5052596;28;20435;-53
2022/10/30 04:42:51;;;;;;;125.50;113.20;;;;;;;11.21;100.00;101563.13;5052272;28;20439;-53
2022/10/30 04:45:19;;;;;;;123.50;112.10;;;;;;;11.17;100.00;101579.72;5052528;28;20484;-49
2022/10/30 04:47:47;;;;;;;127.27;115.10;;;;;;;11.09;100.00;101569.91;5051846;28;20513;-52
2022/10/30 04:50:15;;;;;;;115.23;105.87;;;;;;;11.06;100.00;101565.75;5052313;28;20435;-51
2022/10/30 04:52:43;;;;;;;111.03;101.87;;;;;;;11.02;100.00;101556.44;5051817;28;20853;-49
2022/10/30 04:55:11;;;;;;;125.47;111.67;;;;;;;10.98;100.00;101560.50;5052410;28;20820;-51
2022/10/30 04:57:40;;;;;;;108.23;99.73;;;;;;;10.93;100.00;101552.19;5051583;28;20472;-50
2022/10/30 05:00:09;;;;;;;116.07;102.60;;;;;;;10.92;100.00;101557.72;5052204;28;21116;-48
2022/10/30 05:02:36;;;;;;;112.63;100.40;;;;;;;10.89;100.00;101550.06;5051662;28;20830;-49
2022/10/30 05:05:05;;;;;;;107.20;97.40;;;;;;;10.83;100.00;101546.28;5052194;28;20849;-51
2022/10/30 05:07:33;;;;;;;127.13;107.13;;;;;;;10.80;100.00;101548.47;5051537;28;20463;-51
2022/10/30 05:10:00;;;;;;;101.60;93.70;;;;;;;10.77;100.00;101539.00;5051987;28;20439;-46
2022/10/30 05:12:28;;;;;;;111.13;100.90;;;;;;;10.73;100.00;101556.34;5051773;28;20439;-47
2022/10/30 05:14:56;;;;;;;147.40;105.30;;;;;;;10.68;100.00;101561.41;5051769;28;20489;-49
2022/10/30 05:17:24;;;;;;;122.23;103.10;;;;;;;10.65;100.00;101558.25;5051261;28;20470;-49
2022/10/30 05:19:53;;;;;;;98.60;91.30;;;;;;;10.59;100.00;101561.63;5048792;28;20476;-51
2022/10/30 05:22:20;;;;;;;95.83;89.60;;;;;;;10.54;100.00;101562.16;5059642;28;20477;-48
2022/10/30 05:24:48;;;;;;;104.03;96.43;;;;;;;10.49;100.00;101565.34;5051713;28;20933;-52
2022/10/30 05:27:16;;;;;;;100.87;92.10;;;;;;;10.43;100.00;101562.53;5051320;28;20533;-48
2022/10/30 05:29:43;;;;;;;206.93;109.00;;;;;;;10.37;100.00;101566.75;5051598;28;20485;-50
2022/10/30 05:32:12;;;;;;;87.57;81.07;;;;;;;10.35;100.00;101570.59;5051600;28;20439;-50
2022/10/30 05:34:40;;;;;;;99.93;86.37;;;;;;;10.31;100.00;101566.59;5050873;28;20427;-46
2022/10/30 05:37:08;;;;;;;92.70;83.50;;;;;;;10.27;100.00;101563.50;5051232;28;20529;-51
2022/10/30 05:39:36;;;;;;;113.97;91.27;;;;;;;10.23;100.00;101558.66;5051508;28;20474;-49
2022/10/30 05:42:04;;;;;;;81.33;76.03;;;;;;;10.20;100.00;101570.50;5051324;28;20956;-49
2022/10/30 05:44:36;;;;;;;79.80;74.97;;;;;;;10.16;100.00;101565.69;5051467;28;20929;-52
2022/10/30 05:47:25;;;;;;;86.30;80.07;;;;;;;10.13;100.00;101572.19;5050963;28;20495;-52
2022/10/30 05:49:52;;;;;;;88.43;82.23;;;;;;;10.09;100.00;101573.53;5056632;28;20434;-49
2022/10/30 05:52:20;;;;;;;80.97;76.17;;;;;;;10.08;100.00;101587.00;5051229;28;20431;-51
2022/10/30 05:54:48;;;;;;;84.03;78.70;;;;;;;10.07;100.00;101578.19;5051165;28;20484;-48
2022/10/30 05:57:15;;;;;;;81.07;76.33;;;;;;;10.07;100.00;101578.19;5051056;28;20462;-45
2022/10/30 05:59:43;;;;;;;86.00;80.40;;;;;;;10.09;100.00;101581.53;5051390;28;20471;-47
2022/10/30 06:02:10;;;;;;;86.47;81.13;;;;;;;10.12;100.00;101583.00;5051021;28;20500;-48
2022/10/30 06:04:39;;;;;;;90.83;84.37;;;;;;;10.16;100.00;101587.00;5051104;28;20489;-46
2022/10/30 06:07:07;;;;;;;94.60;88.17;;;;;;;10.20;100.00;101583.00;5054543;28;20528;-48
2022/10/30 06:09:34;;;;;;;91.20;85.20;;;;;;;10.21;100.00;101587.34;5055184;28;20439;-47
2022/10/30 06:12:02;;;;;;;93.93;87.20;;;;;;;10.25;100.00;101585.97;5054794;28;20937;-50
2022/10/30 06:14:30;;;;;;;93.47;86.83;;;;;;;10.27;100.00;101582.16;5055048;28;20756;-51
2022/10/30 06:16:57;;;;;;;102.40;94.80;;;;;;;10.31;100.00;101588.78;5054306;28;20463;-48
2022/10/30 06:19:25;;;;;;;96.40;89.33;;;;;;;10.34;100.00;101584.91;5054883;28;20504;-45
2022/10/30 06:21:54;;;;;;;99.87;93.00;;;;;;;10.38;100.00;101581.75;5058511;28;20430;-48
2022/10/30 06:24:22;;;;;;;99.87;91.97;;;;;;;10.45;100.00;101580.03;5034993;28;20486;-50
2022/10/30 06:26:49;;;;;;;95.20;88.70;;;;;;;10.50;100.00;101582.19;5034362;28;20452;-49
2022/10/30 06:29:17;;;;;;;97.10;90.20;;;;;;;10.57;100.00;101581.28;5034623;28;20432;-46
2022/10/30 06:31:45;;;;;;;93.07;86.23;;;;;;;10.63;100.00;101576.28;5034136;28;20498;-48
2022/10/30 06:34:12;;;;;;;98.60;91.07;;;;;;;10.73;100.00;101576.84;5034873;28;20428;-46
2022/10/30 06:36:40;;;;;;;98.97;92.00;;;;;;;10.81;100.00;101584.81;5034142;28;21011;-48
2022/10/30 06:39:09;;;;;;;99.10;92.60;;;;;;;10.91;100.00;101590.72;5034717;28;20898;-46
2022/10/30 06:41:36;;;;;;;95.90;89.00;;;;;;;10.98;100.00;101586.34;5034460;28;20432;-47
2022/10/30 06:44:04;;;;;;;100.10;93.00;;;;;;;11.07;100.00;101580.78;5034549;28;20432;-51
2022/10/30 06:46:32;;;;;;;99.40;92.47;;;;;;;11.16;100.00;101581.53;5033886;28;20467;-52
2022/10/30 06:49:00;;;;;;;95.93;89.80;;;;;;;11.27;100.00;101578.44;5034347;28;20463;-49
2022/10/30 06:51:28;;;;;;;99.23;91.83;;;;;;;11.38;100.00;101582.53;5034129;28;20482;-50
2022/10/30 06:53:56;;;;;;;94.30;88.00;;;;;;;11.51;100.00;101585.38;5034505;28;20494;-48
2022/10/30 06:56:25;;;;;;;98.87;91.80;;;;;;;11.64;100.00;101586.44;5033897;28;20971;-53
2022/10/30 06:58:52;;;;;;;95.77;89.67;;;;;;;11.78;100.00;101578.63;5033321;28;20476;-50
2022/10/30 07:01:20;;;;;;;97.30;90.97;;;;;;;11.91;100.00;101589.50;5033542;28;20494;-50
2022/10/30 07:03:47;;;;;;;98.57;92.17;;;;;;;11.99;100.00;101584.06;5034233;28;20535;-51
2022/10/30 07:06:15;;;;;;;100.83;94.07;;;;;;;12.08;100.00;101581.09;5034320;28;20864;-48
2022/10/30 07:08:42;;;;;;;107.03;99.57;;;;;;;12.14;100.00;101584.88;5033805;28;20973;-47
2022/10/30 07:11:10;;;;;;;101.90;95.67;;;;;;;12.20;100.00;101581.44;5034063;28;20443;-47
2022/10/30 07:13:39;;;;;;;104.40;98.30;;;;;;;12.28;100.00;101583.19;5033895;28;20478;-46
2022/10/30 07:16:07;;;;;;;103.53;97.43;;;;;;;12.32;100.00;101582.63;5033316;28;20474;-47
2022/10/30 07:18:34;;;;;;;106.60;100.27;;;;;;;12.41;100.00;101597.56;5033532;28;20526;-46
2022/10/30 07:21:02;;;;;;;113.20;105.27;;;;;;;12.48;100.00;101593.13;5055455;28;20457;-49
2022/10/30 07:23:30;;;;;;;112.63;105.87;;;;;;;12.57;100.00;101594.63;5056565;28;20505;-47
2022/10/30 07:25:59;;;;;;;101.23;95.20;;;;;;;12.66;100.00;101596.19;5054066;28;20431;-46
2022/10/30 07:28:31;;;;;;;105.43;99.73;;;;;;;12.78;100.00;101607.25;5052142;28;20467;-46
2022/10/30 07:31:00;;;;;;;105.93;99.80;;;;;;;12.90;100.00;101602.22;5054578;28;20470;-46
2022/10/30 07:33:27;;;;;;;109.80;102.93;;;;;;;13.01;100.00;101607.88;5055677;28;20443;-47
2022/10/30 07:35:55;;;;;;;109.07;102.50;;;;;;;13.14;100.00;101609.91;5060891;28;20497;-51
2022/10/30 07:38:22;;;;;;;113.80;107.87;;;;;;;13.30;100.00;101612.28;5050059;28;20471;-47
2022/10/30 07:40:52;;;;;;;113.77;107.43;;;;;;;13.43;100.00;101609.72;5061223;28;20463;-51
2022/10/30 07:43:20;;;;;;;114.50;108.57;;;;;;;13.55;100.00;101605.50;5073348;28;20835;-49
2022/10/30 07:45:47;;;;;;;118.33;111.60;;;;;;;13.68;100.00;101618.97;5073205;28;20831;-48
2022/10/30 07:48:16;;;;;;;114.07;107.83;;;;;;;13.78;100.00;101613.28;5072975;28;20516;-49
2022/10/30 07:50:44;;;;;;;124.13;117.10;;;;;;;13.90;100.00;101619.75;5072735;28;20997;-46
2022/10/30 07:53:11;;;;;;;122.23;115.50;;;;;;;13.97;100.00;101612.59;5057685;28;21002;-47
2022/10/30 07:55:39;;;;;;;124.40;117.43;;;;;;;14.08;100.00;101622.75;5052358;28;20427;-46
2022/10/30 07:58:06;;;;;;;127.23;120.60;;;;;;;14.15;100.00;101617.44;5051714;28;20475;-46
2022/10/30 08:00:34;;;;;;;128.87;122.47;;;;;;;14.16;100.00;101621.75;5061066;28;20475;-47
2022/10/30 08:03:01;;;;;;;120.13;114.13;;;;;;;14.25;100.00;101621.38;5070115;28;20484;-49
2022/10/30 08:05:31;;;;;;;122.27;115.97;;;;;;;14.32;100.00;101621.41;5073054;28;20467;-48
2022/10/30 08:07:58;;;;;;;123.00;115.80;;;;;;;14.40;100.00;101614.06;5072982;28;20660;-45
2022/10/30 08:10:27;;;;;;;131.73;125.10;;;;;;;14.44;100.00;101617.16;5072031;28;20427;-48
2022/10/30 08:12:54;;;;;;;128.57;121.77;;;;;;;14.44;100.00;101619.84;5071701;28;20480;-49
2022/10/30 08:15:23;;;;;;;126.93;120.60;;;;;;;14.48;100.00;101615.75;5071996;28;20492;-47
2022/10/30 08:17:51;;;;;;;133.43;126.23;;;;;;;14.50;100.00;101618.22;5071886;28;21006;-46
2022/10/30 08:20:21;;;;;;;124.40;118.10;;;;;;;14.52;100.00;101616.16;5066004;28;20470;-46
2022/10/30 08:22:51;;;;;;;131.57;124.70;;;;;;;14.51;100.00;101620.72;5058494;28;20431;-46
2022/10/30 08:25:20;;;;;;;133.67;125.67;;;;;;;14.55;100.00;101615.75;5071659;28;20431;-45
2022/10/30 08:27:53;;;;;;;124.03;117.93;;;;;;;14.62;100.00;101614.75;5070346;28;20523;-50
2022/10/30 08:30:21;;;;;;;127.00;120.37;;;;;;;14.72;100.00;101611.69;5071570;28;20418;-45
2022/10/30 08:32:49;;;;;;;124.33;117.30;;;;;;;14.85;100.00;101619.75;5071462;28;20430;-48
2022/10/30 08:35:17;;;;;;;112.40;106.57;;;;;;;14.96;100.00;101619.19;5071424;28;20438;-46
2022/10/30 08:37:46;;;;;;;108.80;103.10;;;;;;;15.11;100.00;101624.38;5070779;28;20494;-47
2022/10/30 08:40:41;;;;;;;115.80;109.30;;;;;;;15.22;100.00;101613.00;5071454;28;20473;-51
2022/10/30 08:43:10;;;;;;;104.40;98.40;;;;;;;15.38;100.00;101623.38;5071912;28;20410;-48
2022/10/30 08:45:37;;;;;;;103.90;97.87;;;;;;;15.49;100.00;101615.53;5072710;28;20488;-45
2022/10/30 08:48:06;;;;;;;100.27;94.47;;;;;;;15.62;100.00;101611.19;5071106;28;20462;-45
2022/10/30 08:50:34;;;;;;;97.93;92.07;;;;;;;15.74;100.00;101610.31;5072338;28;20792;-46
2022/10/30 08:53:03;;;;;;;86.07;80.93;;;;;;;15.88;100.00;101621.91;5068913;28;20867;-51
2022/10/30 08:55:31;;;;;;;83.20;77.97;;;;;;;15.99;100.00;101621.25;5054713;28;20450;-47
2022/10/30 08:58:00;;;;;;;77.00;72.00;;;;;;;16.08;100.00;101636.13;5052931;28;20463;-45
2022/10/30 09:00:28;;;;;;;72.53;67.43;;;;;;;16.19;100.00;101627.41;5057323;28;20475;-48
2022/10/30 09:02:56;;;;;;;66.07;61.17;;;;;;;16.35;100.00;101626.09;5051272;28;21025;-50
2022/10/30 09:05:24;;;;;;;60.73;56.00;;;;;;;16.50;100.00;101626.66;5049533;28;20451;-50
2022/10/30 09:07:56;;;;;;;61.33;56.97;;;;;;;16.62;100.00;101629.53;5047924;28;20987;-45
2022/10/30 09:10:24;;;;;;;57.73;53.23;;;;;;;16.74;100.00;101628.66;5055490;28;21155;-46
2022/10/30 09:12:54;;;;;;;59.53;54.57;;;;;;;16.86;100.00;101620.72;5063029;28;21152;-46
2022/10/30 09:15:24;;;;;;;58.83;54.13;;;;;;;16.83;100.00;101618.44;5072124;28;20434;-45
2022/10/30 09:17:56;;;;;;;58.70;53.43;;;;;;;16.70;100.00;101619.34;5071347;28;20531;-51
2022/10/30 09:20:24;;;;;;;59.33;54.60;;;;;;;16.71;100.00;101621.00;5067952;28;20467;-45
2022/10/30 09:22:52;;;;;;;59.63;55.00;;;;;;;16.73;100.00;101621.59;5063171;28;20838;-47
2022/10/30 09:25:20;;;;;;;57.70;53.20;;;;;;;16.72;100.00;101619.97;5071599;28;20430;-48
2022/10/30 09:27:47;;;;;;;58.37;53.73;;;;;;;16.80;100.00;101625.09;5071218;28;20527;-46
2022/10/30 09:30:15;;;;;;;59.83;55.13;;;;;;;16.84;100.00;101618.25;5071559;28;20422;-49
2022/10/30 09:32:44;;;;;;;58.67;54.10;;;;;;;16.87;100.00;101620.50;5071377;28;20434;-50
2022/10/30 09:35:12;;;;;;;59.53;54.53;;;;;;;16.91;100.00;101626.25;5071257;28;20431;-45
2022/10/30 09:37:40;;;;;;;57.60;53.13;;;;;;;17.01;100.00;101627.47;5069928;28;20470;-45
2022/10/30 09:40:17;;;;;;;61.50;56.30;;;;;;;17.04;100.00;101634.28;5071721;28;20434;-47
2022/10/30 09:42:47;;;;;;;61.40;56.10;;;;;;;17.07;100.00;101629.28;5075770;28;20434;-45
2022/10/30 09:45:48;;;;;;;60.47;55.33;;;;;;;17.14;100.00;101619.25;5074429;28;20491;-48
2022/10/30 09:48:47;;;;;;;61.63;56.37;;;;;;;17.28;100.00;101621.88;5062438;28;20465;-45
2022/10/30 09:51:34;;;;;;;58.23;53.60;;;;;;;17.35;100.00;101630.75;5055513;28;20422;-45
2022/10/30 09:54:10;;;;;;;58.33;53.33;;;;;;;17.40;100.00;101642.53;5043735;28;20451;-49
2022/10/30 09:56:44;;;;;;;59.43;54.53;;;;;;;17.39;100.00;101642.72;5055278;28;20446;-48
2022/10/30 09:59:24;;;;;;;58.10;53.70;;;;;;;17.36;100.00;101651.25;5054655;28;20443;-47
2022/10/30 10:02:00;;;;;;;59.97;55.17;;;;;;;17.34;100.00;101647.97;5054296;28;20497;-48
2022/10/30 10:04:38;;;;;;;58.70;53.97;;;;;;;17.40;100.00;101653.31;5053925;28;20515;-53
2022/10/30 10:07:15;;;;;;;56.53;52.00;;;;;;;17.46;100.00;101654.28;5053782;28;20447;-49
2022/10/30 10:09:44;;;;;;;61.47;55.90;;;;;;;17.47;100.00;101654.06;5053823;28;20438;-53
2022/10/30 10:12:18;;;;;;;63.93;58.83;;;;;;;17.50;100.00;101647.44;5053028;28;20791;-50
2022/10/30 10:14:47;;;;;;;58.33;53.23;;;;;;;17.61;100.00;101646.72;5052618;28;20488;-48
2022/10/30 10:17:20;;;;;;;57.67;52.17;;;;;;;17.66;100.00;101653.13;5053980;28;20510;-46
2022/10/30 10:19:55;;;;;;;58.37;53.47;;;;;;;17.70;100.00;101650.81;5050201;28;20793;-50
2022/10/30 10:22:29;;;;;;;60.23;54.87;;;;;;;17.77;100.00;101648.84;5050462;28;21399;-48
2022/10/30 10:24:57;;;;;;;60.73;53.00;;;;;;;17.87;100.00;101648.34;5054755;28;20943;-46
2022/10/30 10:27:41;;;;;;;59.37;54.27;;;;;;;17.97;100.00;101651.38;5053263;28;21046;-49
2022/10/30 10:30:13;;;;;;;59.53;54.83;;;;;;;18.09;100.00;101644.19;5053323;28;20739;-52
2022/10/30 10:32:59;;;;;;;58.50;53.77;;;;;;;18.14;100.00;101647.88;5053325;28;20462;-50
2022/10/30 10:35:53;;;;;;;57.27;52.77;;;;;;;18.19;100.00;101645.31;5053559;28;20434;-52
2022/10/30 10:38:35;;;;;;;60.03;55.33;;;;;;;18.28;100.00;101653.13;5052951;28;20443;-46
2022/10/30 10:41:17;;;;;;;58.63;53.90;;;;;;;18.31;100.00;101652.69;5052860;28;20987;-53
2022/10/30 10:44:01;;;;;;;59.87;54.60;;;;;;;18.33;100.00;101656.81;5051552;28;20459;-46
2022/10/30 10:46:47;;;;;;;58.00;53.20;;;;;;;18.32;100.00;101652.44;5033381;28;20521;-49
2022/10/30 10:49:26;;;;;;;58.90;53.93;;;;;;;18.39;100.00;101649.66;5033949;28;20820;-51
2022/10/30 10:52:00;;;;;;;58.23;53.20;;;;;;;18.36;100.00;101650.13;5032722;28;20500;-53
2022/10/30 10:54:33;;;;;;;61.80;56.80;;;;;;;18.35;100.00;101648.47;5033104;28;20511;-48
2022/10/30 10:57:04;;;;;;;59.10;54.50;;;;;;;18.32;100.00;101649.75;5033670;28;20467;-53
2022/10/30 10:59:36;;;;;;;58.53;54.10;;;;;;;18.24;100.00;101641.94;5034283;28;20428;-46
2022/10/30 11:02:28;;;;;;;60.83;55.67;;;;;;;18.15;100.00;101644.13;5033737;28;20472;-47
2022/10/30 11:05:04;;;;;;;59.60;54.50;;;;;;;18.17;100.00;101647.41;5034304;28;20436;-48
2022/10/30 11:07:37;;;;;;;60.60;56.00;;;;;;;18.21;100.00;101655.91;5032988;28;20486;-46
2022/10/30 11:10:12;;;;;;;58.63;54.10;;;;;;;18.21;100.00;101659.44;5034317;28;20436;-48